Time;durP1;ratioP1;P1;durP2;ratioP2;P2;SDS_P1;SDS_P2;PMS_P1;PMS_P2;Temp;Humidity;BMP_temperature;BMP_pressure;BME280_temperature;BME280_humidity;BME280_pressure;Samples;Min_cycle;Max_cycle;Signal;HPM_P1;HPM_P2
2023/05/04 00:01:29;;;;;;;12.50;11.37;;;;;;;12.81;74.16;96099.47;4984187;28;20204;-88
2023/05/04 00:04:22;;;;;;;11.87;10.77;;;;;;;12.55;76.18;96104.25;5004293;28;20294;-87
2023/05/04 00:06:50;;;;;;;12.57;10.93;;;;;;;12.30;77.59;96101.09;4992827;28;20258;-87
2023/05/04 00:12:28;;;;;;;12.30;11.07;;;;;;;12.54;76.28;96090.53;4992679;28;20343;-87
2023/05/04 00:15:08;;;;;;;13.00;11.80;;;;;;;12.32;77.12;96094.75;4993005;28;20211;-87
2023/05/04 00:17:43;;;;;;;14.30;11.53;;;;;;;12.21;77.73;96092.59;4995142;28;20608;-87
2023/05/04 00:20:17;;;;;;;13.37;12.17;;;;;;;12.06;78.87;96089.97;4996684;28;20195;-87
2023/05/04 00:22:43;;;;;;;12.93;11.73;;;;;;;12.16;78.91;96086.34;4996017;28;20203;-87
2023/05/04 00:25:12;;;;;;;14.40;13.00;;;;;;;11.99;79.36;96089.03;4995931;28;20223;-87
2023/05/04 00:27:50;;;;;;;13.50;12.10;;;;;;;11.77;81.02;96087.25;4995783;28;20227;-88
2023/05/04 00:30:18;;;;;;;13.90;12.37;;;;;;;11.77;80.50;96082.91;4996249;28;20234;-87
2023/05/04 00:32:58;;;;;;;14.00;12.63;;;;;;;11.75;80.73;96078.84;4995955;28;20200;-86
2023/05/04 00:35:38;;;;;;;14.03;12.63;;;;;;;11.73;81.13;96078.25;4996121;28;20227;-86
2023/05/04 00:38:14;;;;;;;13.07;11.87;;;;;;;11.77;80.73;96076.94;4995501;28;20214;-87
2023/05/04 00:40:46;;;;;;;12.70;11.40;;;;;;;11.82;80.43;96077.25;4994953;28;20257;-87
2023/05/04 00:46:07;;;;;;;12.33;11.23;;;;;;;12.21;77.79;96071.13;4984587;28;20223;-86
2023/05/04 00:48:41;;;;;;;12.53;11.33;;;;;;;12.06;78.63;96076.25;4996681;28;20231;-86
2023/05/04 00:51:20;;;;;;;11.87;10.87;;;;;;;12.04;78.38;96075.63;4996118;28;20199;-86
2023/05/04 00:53:48;;;;;;;11.73;10.70;;;;;;;12.08;77.84;96072.53;4996662;28;20592;-87
2023/05/04 00:56:31;;;;;;;;;;;;;;;;;;;;;
2023/05/04 00:59:03;;;;;;;12.17;11.07;;;;;;;12.21;76.17;96071.94;4994575;28;20635;-87
2023/05/04 01:01:36;;;;;;;12.83;11.53;;;;;;;11.91;77.67;96067.69;4994243;28;20246;-87
2023/05/04 01:04:19;;;;;;;12.07;10.83;;;;;;;11.95;78.00;96072.31;4995061;28;20203;-86
2023/05/04 01:06:51;;;;;;;11.73;10.67;;;;;;;12.05;77.38;96075.47;4994975;28;20797;-87
2023/05/04 01:09:28;;;;;;;12.80;11.50;;;;;;;12.04;77.36;96070.47;4995331;28;20219;-87
2023/05/04 01:12:01;;;;;;;12.67;11.30;;;;;;;11.94;77.78;96065.53;4995548;28;20203;-87
2023/05/04 01:14:33;;;;;;;12.10;10.90;;;;;;;12.06;77.05;96071.91;4996760;28;20727;-87
2023/05/04 01:17:07;;;;;;;12.13;11.03;;;;;;;12.20;76.67;96067.75;4995829;28;20263;-87
2023/05/04 01:19:43;;;;;;;12.47;11.37;;;;;;;12.01;76.39;96076.78;4995712;28;20195;-89
2023/05/04 01:22:16;;;;;;;12.73;11.47;;;;;;;11.85;77.27;96076.91;4994492;28;20669;-87
2023/05/04 01:24:48;;;;;;;12.93;11.73;;;;;;;11.63;78.87;96073.31;4997572;28;20207;-87
2023/05/04 01:27:24;;;;;;;13.20;11.63;;;;;;;11.41;80.09;96067.13;4996604;28;20604;-86
2023/05/04 01:30:05;;;;;;;13.07;11.77;;;;;;;11.39;80.57;96074.22;4996368;28;20681;-87
2023/05/04 01:32:39;;;;;;;13.83;12.30;;;;;;;11.53;79.80;96075.31;4997575;28;20215;-89
2023/05/04 01:35:15;;;;;;;12.10;10.93;;;;;;;11.69;79.28;96072.63;4996540;28;20250;-88
2023/05/04 01:37:43;;;;;;;12.93;11.73;;;;;;;11.74;78.51;96069.50;4997095;28;20235;-86
2023/05/04 01:40:21;;;;;;;12.93;11.63;;;;;;;11.89;77.77;96062.69;4996354;28;20196;-87
2023/05/04 01:42:48;;;;;;;12.67;11.47;;;;;;;11.75;77.94;96066.75;4995890;28;20267;-86
2023/05/04 01:45:19;;;;;;;13.20;12.00;;;;;;;11.68;78.42;96067.63;4995566;28;20224;-87
2023/05/04 01:47:52;;;;;;;12.60;11.37;;;;;;;11.76;78.07;96062.44;4995276;28;20210;-88
2023/05/04 01:50:19;;;;;;;12.67;11.50;;;;;;;11.66;78.07;96067.00;4994934;28;20295;-86
2023/05/04 01:52:49;;;;;;;12.10;11.00;;;;;;;11.81;77.80;96061.94;4994562;28;20258;-86
2023/05/04 01:55:22;;;;;;;12.13;10.83;;;;;;;11.86;77.05;96067.38;4994693;28;20227;-87
2023/05/04 01:57:51;;;;;;;13.27;11.97;;;;;;;11.69;78.03;96064.88;4996214;28;20231;-87
2023/05/04 02:00:19;;;;;;;12.37;11.23;;;;;;;11.61;78.06;96059.78;4994326;28;20684;-87
2023/05/04 02:02:46;;;;;;;12.30;11.20;;;;;;;11.63;77.92;96065.56;4994667;28;20778;-88
2023/05/04 02:05:16;;;;;;;12.90;11.63;;;;;;;11.77;77.36;96064.84;4994900;28;20294;-87
2023/05/04 02:07:45;;;;;;;11.43;10.33;;;;;;;11.90;76.63;96058.34;4994537;28;20226;-87
2023/05/04 02:12:59;;;;;;;12.63;11.43;;;;;;;11.87;76.68;96069.00;4991977;28;20218;-87
2023/05/04 02:15:30;;;;;;;12.47;11.27;;;;;;;11.72;76.76;96069.72;4993260;28;20337;-87
2023/05/04 02:17:59;;;;;;;12.53;11.43;;;;;;;11.65;77.50;96066.19;4994194;28;20204;-88
2023/05/04 02:20:25;;;;;;;12.93;11.70;;;;;;;11.51;77.71;96063.56;4994446;28;20211;-87
2023/05/04 02:25:59;;;;;;;13.37;12.17;;;;;;;11.50;77.83;96062.75;4991731;28;20224;-87
2023/05/04 02:28:31;;;;;;;13.37;11.97;;;;;;;11.35;78.05;96064.44;4994221;28;20229;-87
2023/05/04 02:31:15;;;;;;;;;;;;;;;;;;;;;
2023/05/04 02:33:46;;;;;;;13.27;11.90;;;;;;;11.32;78.61;96052.69;4993676;28;20267;-87
2023/05/04 02:36:29;;;;;;;13.30;12.00;;;;;;;11.28;78.85;96055.78;4993480;28;20228;-86
2023/05/04 02:42:10;;;;;;;13.40;12.20;;;;;;;11.20;79.20;96059.19;4988466;28;20214;-87
2023/05/04 02:47:24;;;;;;;13.53;12.20;;;;;;;11.15;79.60;96058.09;4992743;28;20211;-88
2023/05/04 02:50:02;;;;;;;13.50;12.10;;;;;;;11.12;79.69;96051.50;4995084;28;20721;-87
2023/05/04 02:52:28;;;;;;;14.03;12.73;;;;;;;11.13;80.13;96058.28;5014041;28;20244;-87
2023/05/04 02:55:01;;;;;;;14.43;12.07;;;;;;;11.25;79.33;96056.91;4999534;28;20203;-87
2023/05/04 02:57:40;;;;;;;14.97;13.47;;;;;;;11.13;79.74;96063.44;4993886;28;20207;-87
2023/05/04 03:03:09;;;;;;;13.67;12.27;;;;;;;11.05;80.68;96061.69;4971422;28;20208;-87
2023/05/04 03:05:54;;;;;;;13.93;12.63;;;;;;;11.12;80.36;96058.44;4975499;28;20628;-87
2023/05/04 03:08:26;;;;;;;14.30;12.80;;;;;;;11.10;80.19;96061.19;4992847;28;20853;-87
2023/05/04 03:11:03;;;;;;;14.03;12.63;;;;;;;11.18;80.37;96063.69;4993080;28;20234;-87
2023/05/04 03:13:31;;;;;;;13.67;12.37;;;;;;;11.13;80.17;96054.88;4995114;28;20207;-87
2023/05/04 03:16:11;;;;;;;13.97;12.53;;;;;;;11.17;80.03;96050.97;4995406;28;20274;-87
2023/05/04 03:19:04;;;;;;;13.67;12.27;;;;;;;11.26;79.54;96058.53;4994348;28;20707;-87
2023/05/04 03:21:43;;;;;;;15.07;13.10;;;;;;;11.25;79.06;96058.69;4994397;28;20210;-87
2023/05/04 03:24:12;;;;;;;14.10;12.80;;;;;;;11.33;79.00;96056.88;4992870;28;20863;-87
2023/05/04 03:26:40;;;;;;;13.57;12.37;;;;;;;11.34;79.06;96062.84;4992303;28;20231;-87
2023/05/04 03:29:09;;;;;;;14.17;12.77;;;;;;;11.19;79.51;96054.19;4993134;28;20219;-87
2023/05/04 03:31:39;;;;;;;14.77;13.37;;;;;;;11.17;79.72;96058.72;4987573;28;20620;-87
2023/05/04 03:34:27;;;;;;;14.07;12.67;;;;;;;11.11;79.66;96056.84;4991288;28;20199;-87
2023/05/04 03:37:04;;;;;;;15.53;13.50;;;;;;;11.17;79.72;96059.53;4993097;28;20700;-87
2023/05/04 03:39:38;;;;;;;14.57;13.23;;;;;;;11.20;79.53;96064.34;4991556;28;20192;-88
2023/05/04 03:42:15;;;;;;;15.50;13.90;;;;;;;11.12;80.19;96056.66;4993686;28;20263;-87
2023/05/04 03:44:52;;;;;;;15.13;13.70;;;;;;;10.97;80.73;96056.53;4992243;28;20207;-87
2023/05/04 03:47:22;;;;;;;16.47;14.73;;;;;;;11.05;80.21;96056.53;4983555;28;20635;-88
2023/05/04 03:50:12;;;;;;;16.57;14.83;;;;;;;10.89;81.50;96050.63;4992513;28;20227;-87
2023/05/04 03:52:40;;;;;;;15.90;14.30;;;;;;;10.90;81.59;96049.66;4996528;28;20214;-89
2023/05/04 03:55:33;;;;;;;16.10;14.40;;;;;;;10.75;82.11;96044.41;4996240;28;20270;-87
2023/05/04 03:57:59;;;;;;;16.27;14.60;;;;;;;10.59;83.12;96047.81;4996147;28;20661;-87
2023/05/04 04:00:27;;;;;;;16.00;14.40;;;;;;;10.62;83.23;96044.09;4989049;28;20576;-85
2023/05/04 04:02:53;;;;;;;15.43;14.03;;;;;;;10.64;83.01;96049.91;4977204;28;20204;-86
2023/05/04 04:05:20;;;;;;;15.60;14.00;;;;;;;10.81;82.26;96050.66;4996786;28;20242;-86
2023/05/04 04:07:49;;;;;;;15.90;14.23;;;;;;;10.72;83.49;96045.53;4977088;28;20235;-86
2023/05/04 04:10:16;;;;;;;16.10;14.60;;;;;;;10.69;83.11;96048.44;4969221;28;20212;-86
2023/05/04 04:12:44;;;;;;;15.60;14.10;;;;;;;10.70;83.40;96054.41;4976867;28;20232;-87
2023/05/04 04:15:11;;;;;;;15.73;14.23;;;;;;;10.65;83.67;96051.50;4977391;28;20224;-86
2023/05/04 04:17:39;;;;;;;15.90;14.30;;;;;;;10.68;83.77;96046.84;4971454;28;20204;-86
2023/05/04 04:20:07;;;;;;;16.20;14.63;;;;;;;10.70;83.67;96047.47;4967371;28;20188;-85
2023/05/04 04:22:34;;;;;;;16.53;14.83;;;;;;;10.59;84.07;96050.38;4971369;28;20217;-86
2023/05/04 04:25:00;;;;;;;15.90;14.40;;;;;;;10.64;84.10;96048.13;4964172;28;20197;-86
2023/05/04 04:27:28;;;;;;;15.47;13.93;;;;;;;10.71;83.79;96051.66;4969548;28;20207;-86
2023/05/04 04:29:57;;;;;;;16.13;14.60;;;;;;;10.65;84.41;96046.34;4968016;28;20227;-86
2023/05/04 04:32:24;;;;;;;15.67;14.03;;;;;;;10.63;84.56;96051.66;4968623;28;20208;-86
2023/05/04 04:34:51;;;;;;;16.03;14.43;;;;;;;10.69;84.55;96058.75;4969118;28;20211;-86
2023/05/04 04:37:18;;;;;;;15.63;14.03;;;;;;;10.83;83.80;96053.88;4966435;28;20207;-86
2023/05/04 04:39:44;;;;;;;15.57;14.07;;;;;;;10.85;83.54;96063.03;4968510;28;20199;-86
2023/05/04 04:42:12;;;;;;;15.47;13.93;;;;;;;10.84;83.70;96061.44;4974045;28;20208;-85
2023/05/04 04:44:39;;;;;;;15.17;13.67;;;;;;;10.71;84.16;96054.22;4972321;28;20225;-87
2023/05/04 04:47:09;;;;;;;25.27;17.37;;;;;;;10.70;88.02;96060.34;4971218;28;20220;-87
2023/05/04 04:49:35;;;;;;;16.90;14.90;;;;;;;10.84;84.09;96064.00;4973905;28;20242;-86
2023/05/04 04:52:13;;;;;;;14.80;13.40;;;;;;;10.97;82.84;96060.88;4973999;28;20303;-87
2023/05/04 04:54:45;;;;;;;15.67;14.07;;;;;;;11.14;82.64;96067.63;4974460;28;20585;-86
2023/05/04 04:57:36;;;;;;;16.43;14.80;;;;;;;11.25;82.05;96064.66;4975320;28;20220;-87
2023/05/04 05:00:06;;;;;;;16.87;13.73;;;;;;;11.32;81.48;96064.78;4972711;28;20201;-86
2023/05/04 05:02:51;;;;;;;;;;;;;;;;;;;;;
2023/05/04 05:05:25;;;;;;;14.43;13.03;;;;;;;11.45;80.93;96066.81;4964045;28;20306;-87
2023/05/04 05:07:59;;;;;;;14.73;13.23;;;;;;;11.41;81.27;96074.06;4975939;28;20187;-87
2023/05/04 05:10:51;;;;;;;17.57;14.63;;;;;;;11.44;80.72;96071.16;4969447;28;20220;-87
2023/05/04 05:13:19;;;;;;;14.80;13.30;;;;;;;11.47;79.96;96073.41;4977973;28;20232;-86
2023/05/04 05:15:46;;;;;;;14.13;12.83;;;;;;;11.52;79.48;96070.31;4976778;28;20220;-86
2023/05/04 05:18:14;;;;;;;13.70;12.30;;;;;;;11.49;79.96;96065.50;4977249;28;20208;-86
2023/05/04 05:20:43;;;;;;;13.70;12.30;;;;;;;11.46;79.35;96068.41;4977303;28;20268;-86
2023/05/04 05:23:25;;;;;;;12.73;11.40;;;;;;;11.40;79.72;96064.72;4976211;28;20200;-87
2023/05/04 05:29:16;;;;;;;12.87;11.60;;;;;;;11.03;80.84;96070.53;4949444;28;20790;-86
2023/05/04 05:31:55;;;;;;;13.40;12.03;;;;;;;10.99;81.68;96066.69;4976499;28;20600;-86
2023/05/04 05:37:17;;;;;;;11.57;10.37;;;;;;;11.13;80.84;96070.34;4967883;28;20239;-86
2023/05/04 05:42:43;;;;;;;;;;;;;;;;;;;;;
2023/05/04 05:45:27;;;;;;;12.80;10.83;;;;;;;11.34;79.80;96073.97;4957666;29;20233;-86
2023/05/04 05:47:53;;;;;;;11.93;10.73;;;;;;;11.51;79.77;96073.88;4961078;29;20201;-86
2023/05/04 05:50:20;;;;;;;12.20;11.00;;;;;;;11.54;78.90;96070.97;4960635;29;20245;-85
2023/05/04 05:52:49;;;;;;;12.17;11.07;;;;;;;11.64;78.64;96074.09;4962076;29;20204;-86
2023/05/04 05:58:31;;;;;;;11.07;9.97;;;;;;;11.83;77.67;96080.63;4961511;29;20467;-86
2023/05/04 06:01:00;;;;;;;11.70;10.53;;;;;;;11.88;78.00;96076.56;4975228;28;20196;-86
2023/05/04 06:03:30;;;;;;;11.37;10.27;;;;;;;11.98;76.87;96073.72;4982524;28;20197;-86
2023/05/04 06:06:07;;;;;;;11.27;10.13;;;;;;;11.97;76.47;96080.69;4986927;28;20242;-88
2023/05/04 06:08:36;;;;;;;10.27;9.27;;;;;;;11.88;76.65;96073.97;5002861;28;20203;-87
2023/05/04 06:11:12;;;;;;;10.27;9.37;;;;;;;11.89;76.82;96070.44;4984179;28;20247;-87
2023/05/04 06:13:49;;;;;;;10.90;9.40;;;;;;;12.04;76.41;96066.13;4981867;28;20580;-86
2023/05/04 06:16:25;;;;;;;10.80;9.80;;;;;;;12.03;76.34;96066.28;4981317;28;20228;-87
2023/05/04 06:19:14;;;;;;;10.00;9.10;;;;;;;12.05;75.20;96066.91;4983904;28;20191;-87
2023/05/04 06:22:00;;;;;;;9.70;8.70;;;;;;;12.05;76.09;96069.50;4987835;28;20238;-87
2023/05/04 06:24:28;;;;;;;10.33;9.20;;;;;;;12.16;76.34;96063.09;5001685;28;20223;-87
2023/05/04 06:27:07;;;;;;;10.57;9.47;;;;;;;12.25;75.24;96068.03;5002128;28;20254;-85
2023/05/04 06:29:45;;;;;;;;;;;;;;;;;;;;;
2023/05/04 06:32:11;;;;;;;12.47;9.67;;;;;;;12.44;75.81;96052.06;5002058;28;20207;-85
2023/05/04 06:34:39;;;;;;;10.03;9.03;;;;;;;12.52;75.25;96053.72;5002433;28;20208;-87
2023/05/04 06:37:10;;;;;;;9.90;8.90;;;;;;;12.48;74.09;96051.69;5001207;28;20292;-85
2023/05/04 06:39:48;;;;;;;9.70;8.70;;;;;;;12.49;73.75;96046.34;5011811;28;20203;-86
2023/05/04 06:42:24;;;;;;;10.20;8.93;;;;;;;12.52;74.42;96040.81;4999773;28;20237;-86
2023/05/04 06:44:52;;;;;;;9.07;8.23;;;;;;;12.53;74.38;96046.78;4997172;28;20202;-87
2023/05/04 06:47:26;;;;;;;10.07;9.07;;;;;;;12.60;74.48;96051.06;4998158;28;20238;-85
2023/05/04 06:49:55;;;;;;;9.77;8.77;;;;;;;12.76;74.01;96057.84;4998082;28;20230;-86
2023/05/04 06:52:24;;;;;;;10.43;9.43;;;;;;;12.90;74.27;96049.28;4997928;28;20208;-87
2023/05/04 06:54:53;;;;;;;9.93;9.00;;;;;;;13.04;73.37;96048.50;4997440;28;20209;-86
2023/05/04 06:57:29;;;;;;;11.30;10.20;;;;;;;12.99;72.53;96053.38;4997411;28;20207;-86
2023/05/04 07:00:09;;;;;;;11.47;9.33;;;;;;;13.10;72.69;96049.53;4997326;28;20234;-85
2023/05/04 07:02:45;;;;;;;10.70;9.60;;;;;;;13.28;72.55;96046.59;4996144;28;20334;-85
2023/05/04 07:05:57;;;;;;;10.57;9.47;;;;;;;13.46;71.79;96049.59;4994786;28;20227;-85
2023/05/04 07:08:35;;;;;;;;;;;;;;;;;;;;;
2023/05/04 07:11:02;;;;;;;10.03;9.13;;;;;;;13.90;70.52;96041.66;4985757;28;20220;-87
2023/05/04 07:13:51;;;;;;;12.23;9.25;;;;;;;14.07;69.12;96045.59;4980793;28;20200;-85
2023/05/04 07:16:20;;;;;;;9.43;8.57;;;;;;;14.10;68.84;96037.47;4974187;28;20227;-86
2023/05/04 07:18:46;;;;;;;9.23;8.40;;;;;;;14.29;68.61;96045.56;4993640;28;20207;-87
2023/05/04 07:21:28;;;;;;;8.90;8.10;;;;;;;14.46;67.27;96046.91;5000792;28;20203;-86
2023/05/04 07:24:03;;;;;;;9.10;8.18;;;;;;;14.64;67.04;96042.03;4987983;28;20215;-87
2023/05/04 07:26:29;;;;;;;9.40;8.10;;;;;;;14.75;65.84;96043.31;4992567;28;20247;-87
2023/05/04 07:28:57;;;;;;;9.00;8.23;;;;;;;14.83;66.65;96045.75;5001111;28;20207;-87
2023/05/04 07:31:44;;;;;;;7.93;7.22;;;;;;;14.96;65.53;96040.66;5003932;28;20611;-87
2023/05/04 07:34:10;;;;;;;7.90;7.20;;;;;;;14.86;64.52;96043.56;5003685;28;20196;-86
2023/05/04 07:36:37;;;;;;;7.80;7.05;;;;;;;15.04;63.67;96035.28;5004162;28;20229;-88
2023/05/04 07:39:03;;;;;;;8.38;7.00;;;;;;;14.97;65.10;96044.03;5002829;28;20203;-87
2023/05/04 07:41:30;;;;;;;8.23;6.80;;;;;;;15.29;64.78;96030.41;5004714;28;20206;-86
2023/05/04 07:44:04;;;;;;;7.15;6.55;;;;;;;15.39;62.35;96032.63;5004815;28;20316;-87
2023/05/04 07:46:42;;;;;;;7.20;6.60;;;;;;;15.56;62.66;96036.50;5002889;28;20250;-87
2023/05/04 07:49:09;;;;;;;7.22;6.35;;;;;;;15.73;63.28;96040.34;5001363;28;20199;-87
2023/05/04 07:51:38;;;;;;;6.75;6.10;;;;;;;15.89;61.85;96041.75;5000279;28;20223;-87
2023/05/04 07:54:07;;;;;;;6.82;6.22;;;;;;;15.78;60.58;96037.13;5002139;28;20661;-87
2023/05/04 07:56:34;;;;;;;8.52;6.13;;;;;;;15.77;59.63;96031.16;5000890;28;20291;-88
2023/05/04 08:01:53;;;;;;;6.65;6.10;;;;;;;16.16;59.83;96027.00;4990702;28;20704;-87
2023/05/04 08:04:22;;;;;;;6.00;5.50;;;;;;;16.35;58.40;96023.59;5000272;28;20299;-86
2023/05/04 08:07:05;;;;;;;6.15;5.15;;;;;;;16.48;56.47;96023.56;4999581;28;20233;-87
2023/05/04 08:09:32;;;;;;;6.00;5.50;;;;;;;16.52;55.33;96019.56;4995767;28;20230;-86
2023/05/04 08:12:04;;;;;;;6.30;5.70;;;;;;;16.57;56.22;96019.72;4982753;28;20250;-86
2023/05/04 08:14:32;;;;;;;5.82;5.32;;;;;;;16.69;55.40;96027.75;4991442;28;20199;-87
2023/05/04 08:23:36;;;;;;;4.95;4.50;;;;;;;16.95;53.44;96023.47;4980339;28;20208;-88
2023/05/04 08:26:11;;;;;;;5.38;4.93;;;;;;;16.95;53.47;96021.66;4980159;28;20228;-87
2023/05/04 08:31:58;;;;;;;4.45;4.05;;;;;;;17.41;51.93;96013.69;4977966;28;20231;-88
2023/05/04 08:34:32;;;;;;;4.85;4.45;;;;;;;17.42;50.76;96023.09;4976606;28;20235;-87
2023/05/04 08:40:00;;;;;;;4.25;3.95;;;;;;;17.82;49.59;96018.47;4996376;28;20214;-87
2023/05/04 08:43:04;;;;;;;4.45;3.80;;;;;;;18.04;50.23;96015.53;4977511;28;20631;-88
2023/05/04 08:49:09;;;;;;;4.75;4.28;;;;;;;18.22;49.71;96012.97;4917630;29;20218;-86
2023/05/04 08:57:49;;;;;;;4.20;3.90;;;;;;;18.32;46.94;96010.66;4965901;28;20666;-86
2023/05/04 09:00:45;;;;;;;4.57;4.15;;;;;;;18.45;45.16;96007.94;4985398;28;20203;-86
2023/05/04 09:03:13;;;;;;;4.55;3.30;;;;;;;18.76;45.48;96003.66;4996465;28;20207;-87
2023/05/04 09:06:29;;;;;;;4.40;4.00;;;;;;;18.92;44.29;96008.28;4997097;28;20231;-87
2023/05/04 09:09:30;;;;;;;4.22;3.90;;;;;;;18.95;43.76;96000.81;4977107;28;20224;-85
2023/05/04 09:12:04;;;;;;;3.92;3.63;;;;;;;18.90;42.86;96002.47;4975964;28;20220;-86
2023/05/04 09:15:05;;;;;;;;;;;;;;;;;;;;;
2023/05/04 09:17:41;;;;;;;4.47;4.07;;;;;;;19.10;44.05;96007.47;4971273;28;20263;-86
2023/05/04 09:20:39;;;;;;;4.50;4.03;;;;;;;19.36;44.00;95999.31;4977403;28;20203;-86
2023/05/04 09:23:21;;;;;;;4.95;4.07;;;;;;;19.64;42.99;95996.16;4977833;28;20303;-86
2023/05/04 09:26:27;;;;;;;3.80;3.50;;;;;;;19.77;43.22;95992.56;4977452;28;20449;-86
2023/05/04 09:32:06;;;;;;;5.03;4.18;;;;;;;19.97;42.10;95982.59;4976052;28;20239;-86
2023/05/04 09:38:02;;;;;;;5.07;4.03;;;;;;;20.04;41.13;95993.72;4978641;28;20319;-86
2023/05/04 09:41:00;;;;;;;3.70;3.40;;;;;;;20.05;40.71;95992.72;4965433;28;20201;-87
2023/05/04 09:43:56;;;;;;;4.28;3.97;;;;;;;20.06;40.45;95986.47;4975456;28;20216;-86
2023/05/04 09:46:43;;;;;;;4.00;3.60;;;;;;;20.00;40.08;95984.78;4977021;28;20235;-86
2023/05/04 09:49:33;;;;;;;4.20;3.40;;;;;;;20.13;40.23;95984.53;4973014;28;20866;-86
2023/05/04 09:52:24;;;;;;;4.30;4.00;;;;;;;20.16;40.47;95981.50;4985683;28;20234;-87
2023/05/04 09:55:13;;;;;;;4.30;4.00;;;;;;;20.19;39.42;95977.63;4985218;28;20203;-86
2023/05/04 09:57:51;;;;;;;4.50;3.88;;;;;;;20.30;40.59;95967.16;4980710;28;20208;-87
2023/05/04 10:00:44;;;;;;;4.20;3.80;;;;;;;20.45;40.58;95969.34;4972797;28;20210;-86
2023/05/04 10:03:34;;;;;;;5.13;4.25;;;;;;;20.23;39.13;95960.44;4969209;28;20386;-88
2023/05/04 10:06:09;;;;;;;3.95;3.45;;;;;;;20.30;40.10;95961.94;4977318;28;20224;-86
2023/05/04 10:08:50;;;;;;;4.40;4.00;;;;;;;20.21;41.31;95965.88;4993986;28;20238;-87
2023/05/04 10:11:40;;;;;;;4.00;3.60;;;;;;;20.63;40.49;95958.72;4961904;28;20226;-87
2023/05/04 10:14:14;;;;;;;3.78;3.47;;;;;;;20.74;39.17;95965.00;4982596;28;20213;-87
2023/05/04 10:17:25;;;;;;;4.15;3.85;;;;;;;20.97;39.81;95951.81;4992427;28;20230;-86
2023/05/04 10:24:11;;;;;;;;;;;;;;;;;;;;;
2023/05/04 10:27:27;;;;;;;4.45;4.05;;;;;;;21.29;40.46;95951.41;4908278;29;20253;-86
2023/05/04 10:30:10;;;;;;;7.28;4.13;;;;;;;21.58;40.29;95952.19;4889429;29;20211;-84
2023/05/04 10:33:01;;;;;;;5.43;4.20;;;;;;;21.57;39.75;95948.75;4969891;28;20303;-84
2023/05/04 10:38:30;;;;;;;4.63;3.60;;;;;;;21.69;37.46;95948.72;4904922;29;20209;-85
2023/05/04 10:41:25;;;;;;;5.07;3.80;;;;;;;21.31;35.67;95950.16;4977035;28;20636;-87
2023/05/04 10:44:08;;;;;;;4.05;3.75;;;;;;;21.09;38.33;95951.00;4994027;28;20203;-86
2023/05/04 10:49:42;;;;;;;4.20;3.90;;;;;;;21.55;39.89;95942.19;4977982;28;20287;-86
2023/05/04 10:52:56;;;;;;;4.35;3.95;;;;;;;21.74;39.68;95938.31;4990553;28;20219;-87
2023/05/04 11:01:58;;;;;;;5.28;4.30;;;;;;;21.76;39.10;95932.81;4988205;28;20188;-87
2023/05/04 11:05:18;;;;;;;6.47;4.38;;;;;;;21.99;39.92;95922.16;4991653;28;20195;-85
2023/05/04 11:08:00;;;;;;;4.40;4.10;;;;;;;21.97;39.62;95921.59;4981362;28;20211;-86
2023/05/04 11:10:56;;;;;;;4.40;4.03;;;;;;;22.09;39.87;95930.22;4994052;28;20206;-86
2023/05/04 11:16:37;;;;;;;5.40;4.90;;;;;;;21.91;39.41;95914.72;4995477;28;20883;-86
2023/05/04 11:19:38;;;;;;;;;;;;;;;;;;;;;
2023/05/04 11:28:06;;;;;;;5.00;4.53;;;;;;;21.87;40.37;95910.97;4988911;28;20198;-86
2023/05/04 11:30:34;;;;;;;6.45;4.53;;;;;;;21.76;39.79;95906.59;4993509;28;20656;-87
2023/05/04 11:33:43;;;;;;;4.15;3.85;;;;;;;21.93;39.57;95897.72;4993004;28;20234;-86
2023/05/04 11:36:28;;;;;;;5.05;4.65;;;;;;;22.22;39.04;95898.41;4994439;28;20770;-87
2023/05/04 12:03:41;;;;;;;6.63;5.25;;;;;;;22.04;39.47;95852.25;4978934;28;20207;-89
2023/05/04 12:11:56;;;;;;;5.82;4.57;;;;;;;22.30;39.40;95848.16;4877285;29;20231;-87
2023/05/04 12:15:03;;;;;;;5.30;4.90;;;;;;;22.36;38.78;95851.63;4942274;29;20276;-88
2023/05/04 12:18:13;;;;;;;6.18;4.97;;;;;;;22.26;38.54;95843.63;4954100;29;20208;-88
2023/05/04 12:21:00;;;;;;;5.07;4.68;;;;;;;22.20;38.07;95850.63;4994030;28;20234;-87
2023/05/04 12:24:21;;;;;;;5.90;5.20;;;;;;;21.82;38.09;95832.25;5017197;28;20230;-88
2023/05/04 12:30:14;;;;;;;6.95;5.07;;;;;;;22.13;37.54;95838.75;5014504;28;20214;-89
2023/05/04 12:39:31;;;;;;;;;;;;;;;;;;;;;
2023/05/04 12:42:16;;;;;;;6.82;4.82;;;;;;;22.13;36.00;95830.88;4951061;28;20214;-87
2023/05/04 12:44:42;;;;;;;4.88;4.03;;;;;;;22.32;37.26;95837.41;5020154;28;20209;-87
2023/05/04 12:50:02;;;;;;;5.18;3.85;;;;;;;22.91;36.95;95822.59;5018106;28;20680;-88
2023/05/04 12:52:55;;;;;;;3.72;3.40;;;;;;;23.19;36.52;95826.81;5017908;28;20284;-87
2023/05/04 12:55:49;;;;;;;3.97;3.53;;;;;;;23.20;34.63;95825.78;5019479;28;20293;-88
2023/05/04 13:01:31;;;;;;;4.85;4.38;;;;;;;23.00;34.60;95826.38;4980921;28;20217;-87
2023/05/04 13:04:07;;;;;;;8.00;4.40;;;;;;;23.15;35.25;95819.66;5006305;28;20297;-89
2023/05/04 13:06:45;;;;;;;4.78;4.38;;;;;;;23.05;34.92;95815.13;5004767;28;20229;-89
2023/05/04 13:12:20;;;;;;;4.25;3.92;;;;;;;22.99;34.86;95802.97;5015649;28;20229;-89
2023/05/04 13:17:42;;;;;;;4.88;4.47;;;;;;;23.04;34.45;95809.09;5016433;28;20202;-88
2023/05/04 13:20:40;;;;;;;5.38;4.00;;;;;;;22.79;34.98;95806.22;5018656;28;20284;-88
2023/05/04 13:23:20;;;;;;;4.13;3.47;;;;;;;23.15;35.46;95803.91;5017250;28;20262;-87
2023/05/04 13:26:13;;;;;;;5.43;4.88;;;;;;;23.23;34.71;95796.38;5018985;28;20238;-87
2023/05/04 13:34:08;;;;;;;4.80;4.30;;;;;;;23.44;34.66;95781.56;5015093;28;20580;-89
2023/05/04 13:37:24;;;;;;;4.20;3.80;;;;;;;23.63;36.13;95776.72;5015880;28;20231;-88
2023/05/04 13:40:06;;;;;;;7.22;5.35;;;;;;;23.41;35.67;95782.84;5017977;28;20274;-87
2023/05/04 13:42:42;;;;;;;6.18;5.57;;;;;;;23.31;36.37;95771.44;4996435;28;20204;-88
2023/05/04 13:45:36;;;;;;;5.57;5.07;;;;;;;23.54;37.03;95771.13;4997227;28;20222;-88
2023/05/04 13:48:03;;;;;;;5.85;5.35;;;;;;;23.67;37.02;95760.16;4997188;28;20195;-89
2023/05/04 13:50:45;;;;;;;5.10;4.57;;;;;;;23.81;36.79;95755.25;4998533;28;20217;-88
2023/05/04 13:53:56;;;;;;;5.80;4.55;;;;;;;23.61;37.38;95750.69;5011586;28;20219;-87
2023/05/04 13:59:54;;;;;;;6.57;4.82;;;;;;;23.20;37.49;95746.94;5012549;28;20207;-87
2023/05/04 14:03:07;;;;;;;;;;;;;;;;;;;;;
2023/05/04 14:05:35;;;;;;;5.78;5.00;;;;;;;22.92;37.00;95749.84;4986001;28;20223;-87
2023/05/04 14:08:43;;;;;;;5.28;4.20;;;;;;;22.91;37.44;95749.06;4994247;28;20208;-87
2023/05/04 14:11:21;;;;;;;5.32;4.63;;;;;;;22.69;36.67;95750.97;4931492;29;20197;-87
2023/05/04 14:16:51;;;;;;;5.13;4.32;;;;;;;22.45;38.92;95744.41;5013295;28;20223;-89
2023/05/04 14:19:36;;;;;;;4.75;4.32;;;;;;;22.38;38.74;95740.13;5016672;28;20605;-87
2023/05/04 14:22:04;;;;;;;4.93;4.40;;;;;;;22.29;38.98;95739.00;5015110;28;20194;-87
2023/05/04 14:24:30;;;;;;;5.80;4.35;;;;;;;22.27;39.41;95735.03;5015074;28;20321;-87
2023/05/04 14:27:09;;;;;;;6.28;4.70;;;;;;;22.15;39.35;95729.91;5014217;28;20627;-88
2023/05/04 14:29:36;;;;;;;5.45;4.68;;;;;;;22.12;39.21;95737.50;5013998;28;20202;-87
2023/05/04 14:32:11;;;;;;;5.18;4.68;;;;;;;22.02;39.59;95735.53;5013961;28;20222;-87
2023/05/04 14:34:37;;;;;;;5.38;4.78;;;;;;;21.93;39.82;95734.34;5013306;28;20217;-88
2023/05/04 14:37:06;;;;;;;5.30;4.25;;;;;;;21.94;39.52;95738.53;5012144;28;20250;-87
2023/05/04 14:39:50;;;;;;;5.05;4.60;;;;;;;21.84;39.00;95736.59;5011547;28;20207;-87
2023/05/04 14:42:20;;;;;;;6.38;4.40;;;;;;;21.85;39.04;95732.94;5012937;28;20209;-87
2023/05/04 14:44:49;;;;;;;6.15;5.35;;;;;;;21.80;38.86;95732.06;5012461;28;20195;-87
2023/05/04 14:47:19;;;;;;;5.90;4.50;;;;;;;21.90;39.48;95732.22;5013605;28;20226;-88
2023/05/04 14:49:47;;;;;;;6.15;4.25;;;;;;;21.97;39.38;95730.97;5012983;28;20253;-86
2023/05/04 14:52:25;;;;;;;5.65;4.28;;;;;;;22.02;39.53;95722.41;5014525;28;20223;-87
2023/05/04 14:54:52;;;;;;;5.20;4.70;;;;;;;21.97;38.65;95722.31;5012478;28;20209;-87
2023/05/04 14:57:28;;;;;;;4.75;4.35;;;;;;;22.02;39.28;95725.84;5081333;22;20226;-87
2023/05/04 15:00:06;;;;;;;5.00;4.05;;;;;;;21.96;38.62;95728.59;5004664;28;20890;-87